Weather observations for the past three days for
Bloomington/Normal, Central Illinois Regional Airport at Bloomington-Normal
Imperial (Metric)
Date Time (cdt) Wind (mph) Vis. (mi.) Weather Sky Cond. Temperature (ºF) Relative Humidity Wind Chill (°F) Heat Index (°F) Pressure Precipitation (in)
Air Dwpt 6 hour altimeter (in) sea level (mb) 1 hr 3 hr 6 hr
Max. Min.
06 16:56 NE 13 10.00 Fair CLR 82 60.1 47% 82 30.05 1016.4
06 15:56 NE 13 10.00 A Few Clouds FEW043 82.9 63 51% 84 30.06 1017.0
06 14:56 E 13 10.00 Partly Cloudy SCT041 82 63 53% 83 30.07 1017.3
06 13:56 E 9 G 18 10.00 Partly Cloudy SCT037 82.9 64 53% 84 30.08 1017.7
06 12:56 NE 12 10.00 Mostly Cloudy BKN037 81 66 82.9 69.1 61% 83 30.1 1018.2
06 11:56 NE 15 10.00 Mostly Cloudy BKN031 79 64.9 62% 81 30.11 1018.8
06 10:56 E 10 10.00 Fair CLR 79 64.9 62% 81 30.11 1018.6
06 09:56 E 10 10.00 Fair CLR 75.9 64.9 69% 78 30.09 1018.2
06 08:56 E 9 10.00 Fair CLR 73 66 79% 30.1 1018.5
06 07:56 E 9 10.00 Mostly Cloudy BKN006 71.1 69.1 94% 30.09 1018.2
06 06:56 NE 8 5.00 Fog/Mist BKN006 69.1 69.1 71.1 69.1 100% 30.07 1017.1
06 05:56 E 10 9.00 Overcast OVC008 71.1 71.1 100% 30.04 1016.5
06 04:56 NE 8 8.00 Overcast OVC008 71.1 71.1 100% 30.03 1015.8
06 03:56 NE 8 9.00 Overcast OVC008 71.1 71.1 100% 30.02 1015.7
06 02:56 NE 10 10.00 Overcast OVC010 71.1 71.1 100% 30.03 1015.8
06 01:56 N 8 10.00 Overcast OVC014 70 70 100% 30.04 1016.1
06 00:56 N 6 10.00 Mostly Cloudy BKN016 70 70 82.9 70 100% 30.04 1016.3
05 23:56 NE 17 10.00 Overcast OVC011 71.1 70 96% 30.03 1015.8
05 22:56 NE 9 10.00 Fair CLR 71.1 71.1 100% 30.01 1015.2
05 21:56 NE 10 10.00 Fair CLR 73 71.1 94% 30 1015.0
05 20:56 NE 9 10.00 Fair CLR 75 73 94% 73 29.99 1014.5
05 19:56 NE 10 10.00 Fair CLR 79 73.9 85% 83 29.97 1013.7
05 18:56 N 13 10.00 Fair CLR 84 75 95 84 74% 92 29.95 1013.3
05 17:56 N 15 G 20 10.00 Fair CLR 89.1 75.9 65% 100 29.94 1012.9
05 16:56 N 15 10.00 Fair CLR 91.9 75 58% 103 29.94 1012.6
05 15:56 N 14 10.00 Partly Cloudy SCT041 93 75.9 58% 106 29.94 1012.7
05 14:56 N 13 10.00 Mostly Cloudy SCT039 BKN050 93 75.9 58% 106 29.94 1012.8
05 12:56 N 10 10.00 A Few Clouds FEW055 93 77 93 77 60% 107 29.96 1013.4
05 11:56 N 10 10.00 A Few Clouds FEW060 91.9 77 62% 106 29.97 1013.7
05 10:56 NW 10 10.00 Fair CLR 91.9 75 58% 103 29.98 1013.9
05 09:56 NW 9 10.00 Fair CLR 91 73.9 57% 101 29.97 1013.5
05 08:56 W 8 10.00 A Few Clouds FEW095 86 73.9 67% 94 29.96 1013.6
05 07:56 SW 6 10.00 A Few Clouds FEW100 79 75 88% 83 29.96 1013.6
05 06:56 SW 6 10.00 Fair CLR 75.9 73.9 80.1 75 94% 75 29.95 1013.1
05 05:56 SW 5 10.00 Fair CLR 75.9 73.9 94% 75 29.94 1012.8
05 04:56 SW 3 10.00 Fair CLR 75.9 73.9 94% 75 29.95 1012.9
05 03:56 W 5 10.00 Fair CLR 77 75 94% 78 29.95 1012.9
05 02:56 SW 5 10.00 Mostly Cloudy BKN060 79 75 88% 83 29.95 1012.8
05 01:56 Calm 10.00 Fair CLR 79 75 88% 83 29.96 1013.1
05 00:56 Calm 10.00 Mostly Cloudy BKN065 80.1 75 90 79 85% 85 29.97 1013.5
04 23:56 Calm 10.00 Fair CLR 81 75 82% 87 29.96 1013.3
04 22:56 Calm 10.00 Fair CLR 79 75 88% 83 29.96 1013.5
04 21:56 S 3 10.00 Fair CLR 82 75 79% 89 29.96 1013.5
04 20:56 Calm 10.00 Fair CLR 82.9 75 77% 90 29.96 1013.4
04 19:56 Calm 10.00 Fair CLR 84.9 75 72% 93 29.94 1012.9
04 18:56 W 6 10.00 Fair CLR 90 73.9 96.1 90 59% 99 29.93 1012.6
04 17:56 W 7 10.00 Fair CLR 93 75 56% 104 29.94 1012.8
04 16:56 W 8 10.00 Fair CLR 93.9 75 54% 106 29.93 1012.4
04 15:56 SW 8 10.00 A Few Clouds FEW050 95 75.9 54% 108 29.95 1012.9
04 14:56 SW 8 10.00 Fair CLR 95 75 53% 107 29.97 1013.6
04 13:56 S 9 10.00 Fair CLR 93.9 77 58% 108 29.98 1014.2
04 12:56 SW 9 10.00 Fair CLR 93.9 73.9 93.9 75.9 52% 104 30 1014.6
04 11:56 W 10 10.00 Fair CLR 93 75 56% 104 30.01 1015.2
04 10:56 W 10 10.00 Fair CLR 90 75 62% 100 30.01 1015.2
04 09:56 SW 10 10.00 Fair CLR 88 73.9 63% 97 30 1014.8
04 08:56 SW 8 10.00 Fair CLR 82.9 73 72% 89 30 1014.8
04 07:56 SW 10 10.00 Fair CLR 79 72 79% 82 29.99 1014.4
04 06:56 SW 9 10.00 Fair CLR 75.9 72 77 73.9 88% 76 29.97 1013.8
04 05:56 S 8 10.00 Partly Cloudy SCT075 73.9 72 94% 29.97 1013.8
04 04:56 S 7 10.00 Fair CLR 73.9 71.1 91% 29.97 1013.9
04 03:56 S 7 10.00 Fair CLR 75 71.1 88% 75 29.96 1013.4
04 02:56 S 9 10.00 Fair CLR 75 71.1 88% 75 29.96 1013.3
04 01:56 S 8 10.00 Fair CLR 75.9 71.1 85% 76 29.97 1013.8
04 00:56 S 9 10.00 Fair CLR 77 71.1 88 75.9 82% 79 29.97 1013.9
03 23:56 S 5 10.00 Fair CLR 77 72 85% 78 29.98 1014.0
03 22:56 S 6 10.00 Fair CLR 79 73 82% 82 29.98 1014.0
03 21:56 S 7 10.00 Fair CLR 79 73.9 85% 83 29.96 1013.6
03 20:56 S 7 10.00 Fair CLR 82 77 85% 90 29.95 1013.2
03 19:56 SE 6 10.00 Fair CLR 84 77 80% 94 29.94 1012.8
03 18:56 S 5 10.00 Fair CLR 88 77 95 88 70% 100 29.94 1012.9
03 17:56 S 5 10.00 Fair CLR 91.9 75 58% 103 29.94 1012.9
Date Time (cdt) Wind (mph) Vis. (mi.) Weather Sky Cond. Air Dwpt Max. Min. Relative Humidity Wind Chill (°F) Heat Index (°F) altimeter (in) sea level (mb) 1 hr 3 hr 6 hr
6 hour
Temperature (ºF) Pressure Precipitation (in)